Time,TemperatureF,DewpointF,PressureIn,WindDirection,WindDirectionDegrees,WindSpeedMPH,WindSpeedGustMPH,Humidity,HourlyPrecipIn,Conditions,Clouds,dailyrainin,SoftwareType,DateUTC
2013-02-06 00:01:00,30.0,19.0,-100.00,SW,219,0.0,2.0,64,0.00,,,0.00,,2013-02-06 05:01:00,
2013-02-06 00:11:00,30.0,19.0,-100.00,SW,219,0.0,2.0,64,0.00,,,0.00,,2013-02-06 05:11:00,
2013-02-06 00:22:00,30.0,19.0,-100.00,SW,218,1.0,3.0,64,0.00,,,0.00,,2013-02-06 05:22:00,
2013-02-06 00:31:00,30.0,19.0,-100.00,SSW,206,0.0,3.0,63,0.00,,,0.00,,2013-02-06 05:31:00,
2013-02-06 00:41:00,30.0,19.0,-100.00,SSW,206,0.0,3.0,63,0.00,,,0.00,,2013-02-06 05:41:00,
2013-02-06 00:53:00,30.0,19.0,-100.00,SSW,203,1.0,5.0,62,0.00,,,0.00,,2013-02-06 05:53:00,
2013-02-06 01:01:00,30.0,19.0,-100.00,SSW,203,1.0,5.0,62,0.00,,,0.00,,2013-02-06 06:01:00,
2013-02-06 01:11:00,30.0,19.0,-100.00,SSW,203,1.0,5.0,62,0.00,,,0.00,,2013-02-06 06:11:00,
2013-02-06 01:21:00,31.0,19.0,-100.00,WSW,247,0.0,4.0,60,0.00,,,0.00,,2013-02-06 06:21:00,
2013-02-06 01:31:00,31.0,19.0,-100.00,SSE,165,0.0,3.0,61,0.00,,,0.00,,2013-02-06 06:31:00,
2013-02-06 01:42:00,31.0,19.0,-100.00,SSE,165,0.0,3.0,61,0.00,,,0.00,,2013-02-06 06:42:00,
2013-02-06 01:52:00,31.0,18.0,-100.00,South,179,1.0,3.0,59,0.00,,,0.00,,2013-02-06 06:52:00,
2013-02-06 02:01:00,30.0,19.0,-100.00,South,177,0.0,3.0,62,0.00,,,0.00,,2013-02-06 07:01:00,
2013-02-06 02:11:00,30.0,19.0,-100.00,South,177,0.0,3.0,62,0.00,,,0.00,,2013-02-06 07:11:00,
2013-02-06 02:21:00,29.0,18.0,-100.00,South,177,0.0,2.0,64,0.00,,,0.00,,2013-02-06 07:21:00,
2013-02-06 02:32:00,28.0,18.0,-100.00,South,177,1.0,2.0,66,0.00,,,0.00,,2013-02-06 07:32:00,
2013-02-06 02:41:00,28.0,18.0,-100.00,South,177,1.0,2.0,66,0.00,,,0.00,,2013-02-06 07:41:00,
2013-02-06 02:52:00,28.0,18.0,-100.00,South,177,1.0,3.0,66,0.00,,,0.00,,2013-02-06 07:52:00,
2013-02-06 03:01:00,27.0,17.0,-100.00,South,177,1.0,3.0,66,0.00,,,0.00,,2013-02-06 08:01:00,
2013-02-06 03:11:00,27.0,17.0,-100.00,South,177,1.0,3.0,66,0.00,,,0.00,,2013-02-06 08:11:00,
2013-02-06 03:21:00,28.0,18.0,-100.00,South,188,0.0,3.0,65,0.00,,,0.00,,2013-02-06 08:21:00,
2013-02-06 03:31:00,27.0,18.0,-100.00,South,177,0.0,2.0,67,0.00,,,0.00,,2013-02-06 08:31:00,
2013-02-06 03:41:00,27.0,18.0,-100.00,South,177,0.0,2.0,67,0.00,,,0.00,,2013-02-06 08:41:00,
2013-02-06 03:53:00,28.0,18.0,-100.00,South,189,0.0,3.0,65,0.00,,,0.00,,2013-02-06 08:53:00,
2013-02-06 04:01:00,29.0,18.0,-100.00,SSE,147,2.0,6.0,62,0.00,,,0.00,,2013-02-06 09:01:00,
2013-02-06 04:11:00,29.0,18.0,-100.00,SSE,147,2.0,6.0,62,0.00,,,0.00,,2013-02-06 09:11:00,
2013-02-06 04:21:00,31.0,17.0,-100.00,South,188,2.0,9.0,56,0.00,,,0.00,,2013-02-06 09:21:00,
2013-02-06 04:31:00,30.0,17.0,-100.00,SSE,158,1.0,6.0,59,0.00,,,0.00,,2013-02-06 09:31:00,
2013-02-06 04:41:00,30.0,17.0,-100.00,SSE,158,1.0,6.0,59,0.00,,,0.00,,2013-02-06 09:41:00,
2013-02-06 04:52:00,29.0,17.0,-100.00,SW,219,1.0,5.0,60,0.00,,,0.00,,2013-02-06 09:52:00,
2013-02-06 05:01:00,28.0,17.0,-100.00,SW,220,0.0,2.0,62,0.00,,,0.00,,2013-02-06 10:01:00,
2013-02-06 05:11:00,28.0,17.0,-100.00,SW,220,0.0,2.0,62,0.00,,,0.00,,2013-02-06 10:11:00,
2013-02-06 05:21:00,28.0,17.0,-100.00,SW,220,0.0,2.0,63,0.00,,,0.00,,2013-02-06 10:21:00,
2013-02-06 05:31:00,28.0,17.0,-100.00,SW,220,0.0,2.0,63,0.00,,,0.00,,2013-02-06 10:31:00,
2013-02-06 05:41:00,28.0,17.0,-100.00,SW,220,0.0,2.0,63,0.00,,,0.00,,2013-02-06 10:41:00,
2013-02-06 05:52:00,28.0,17.0,-100.00,SW,220,0.0,2.0,63,0.00,,,0.00,,2013-02-06 10:52:00,
2013-02-06 06:01:00,28.0,17.0,-100.00,SW,220,0.0,2.0,63,0.00,,,0.00,,2013-02-06 11:01:00,
2013-02-06 07:32:00,28.0,18.0,-100.00,SSW,199,3.0,7.0,66,0.00,,,0.00,,2013-02-06 12:32:00,
2013-02-06 07:42:00,28.0,18.0,-100.00,SSW,199,3.0,7.0,66,0.00,,,0.00,,2013-02-06 12:42:00,
2013-02-06 07:52:00,29.0,18.0,-100.00,SSE,160,1.0,7.0,64,0.00,,,0.00,,2013-02-06 12:52:00,
2013-02-06 08:01:00,29.0,18.0,-100.00,SE,133,3.0,5.0,64,0.00,,,0.00,,2013-02-06 13:01:00,
2013-02-06 08:11:00,29.0,18.0,-100.00,SE,133,3.0,5.0,64,0.00,,,0.00,,2013-02-06 13:11:00,
2013-02-06 08:21:00,29.0,18.0,-100.00,SW,229,0.0,5.0,64,0.00,,,0.00,,2013-02-06 13:21:00,
2013-02-06 08:31:00,29.0,18.0,-100.00,SW,219,0.0,4.0,64,0.00,,,0.00,,2013-02-06 13:31:00,
2013-02-06 08:41:00,29.0,18.0,-100.00,SW,219,0.0,4.0,64,0.00,,,0.00,,2013-02-06 13:41:00,
2013-02-06 08:52:00,26.0,16.0,-100.00,SW,220,0.0,3.0,66,0.00,,,0.00,,2013-02-06 13:52:00,
2013-02-06 09:01:00,26.0,18.0,-100.00,SW,221,2.0,4.0,70,0.00,,,0.00,,2013-02-06 14:01:00,
2013-02-06 09:11:00,26.0,18.0,-100.00,SW,221,2.0,4.0,70,0.00,,,0.00,,2013-02-06 14:11:00,
2013-02-06 09:21:00,26.0,17.0,-100.00,West,276,0.0,3.0,69,0.00,,,0.00,,2013-02-06 14:21:00,
2013-02-06 09:31:00,25.0,17.0,-100.00,West,276,0.0,2.0,70,0.00,,,0.00,,2013-02-06 14:31:00,
2013-02-06 09:41:00,25.0,17.0,-100.00,West,276,0.0,2.0,70,0.00,,,0.00,,2013-02-06 14:41:00,
2013-02-06 09:52:00,25.0,17.0,-100.00,South,189,1.0,3.0,72,0.00,,,0.00,,2013-02-06 14:52:00,
2013-02-06 10:01:00,24.0,16.0,-100.00,South,189,0.0,2.0,71,0.00,,,0.00,,2013-02-06 15:01:00,
2013-02-06 10:11:00,24.0,16.0,-100.00,South,189,0.0,2.0,71,0.00,,,0.00,,2013-02-06 15:11:00,
2013-02-06 10:21:00,25.0,17.0,-100.00,South,176,1.0,3.0,72,0.00,,,0.00,,2013-02-06 15:21:00,
2013-02-06 10:31:00,26.0,18.0,-100.00,SW,224,1.0,5.0,71,0.00,,,0.00,,2013-02-06 15:31:00,
2013-02-06 10:41:00,26.0,18.0,-100.00,SW,224,1.0,5.0,71,0.00,,,0.00,,2013-02-06 15:41:00,
2013-02-06 10:52:00,25.0,17.0,-100.00,SSW,212,0.0,3.0,70,0.00,,,0.00,,2013-02-06 15:52:00,
2013-02-06 11:01:00,25.0,17.0,-100.00,SW,218,0.0,3.0,71,0.00,,,0.00,,2013-02-06 16:01:00,
2013-02-06 11:11:00,25.0,17.0,-100.00,SW,218,0.0,3.0,71,0.00,,,0.00,,2013-02-06 16:11:00,
2013-02-06 11:21:00,27.0,19.0,-100.00,SSE,154,1.0,6.0,70,0.00,,,0.00,,2013-02-06 16:21:00,
2013-02-06 11:31:00,28.0,19.0,-100.00,SSE,166,1.0,4.0,68,0.00,,,0.00,,2013-02-06 16:31:00,
2013-02-06 11:41:00,28.0,19.0,-100.00,SSE,166,1.0,4.0,68,0.00,,,0.00,,2013-02-06 16:41:00,
2013-02-06 11:52:00,30.0,20.0,-100.00,South,177,2.0,6.0,65,0.00,,,0.00,,2013-02-06 16:52:00,
2013-02-06 12:01:00,32.0,20.0,-100.00,ESE,116,2.0,6.0,61,0.00,,,0.00,,2013-02-06 17:01:00,
2013-02-06 12:11:00,32.0,20.0,-100.00,ESE,116,2.0,6.0,61,0.00,,,0.00,,2013-02-06 17:11:00,
2013-02-06 12:21:00,34.0,21.0,-100.00,SSW,199,2.0,5.0,58,0.00,,,0.00,,2013-02-06 17:21:00,
2013-02-06 12:32:00,33.0,20.0,-100.00,SE,145,1.0,6.0,59,0.00,,,0.00,,2013-02-06 17:32:00,
2013-02-06 12:41:00,33.0,20.0,-100.00,SE,145,1.0,6.0,59,0.00,,,0.00,,2013-02-06 17:41:00,
2013-02-06 12:52:00,35.0,21.0,-100.00,WSW,245,1.0,5.0,57,0.00,,,0.00,,2013-02-06 17:52:00,
2013-02-06 13:01:00,35.0,21.0,-100.00,SW,223,3.0,11.0,56,0.00,,,0.00,,2013-02-06 18:01:00,
2013-02-06 13:11:00,35.0,21.0,-100.00,SSE,152,3.0,11.0,56,0.00,,,0.00,,2013-02-06 18:11:00,
2013-02-06 13:22:00,35.0,21.0,-100.00,SSE,152,3.0,11.0,56,0.00,,,0.00,,2013-02-06 18:22:00,
2013-02-06 13:32:00,37.0,21.0,-100.00,SW,220,3.0,10.0,53,0.00,,,0.00,,2013-02-06 18:32:00,
2013-02-06 13:41:00,37.0,21.0,-100.00,SW,220,3.0,10.0,53,0.00,,,0.00,,2013-02-06 18:41:00,
2013-02-06 13:52:00,37.0,21.0,-100.00,WSW,249,3.0,9.0,52,0.00,,,0.00,,2013-02-06 18:52:00,
2013-02-06 14:01:00,36.0,21.0,-100.00,West,268,4.0,8.0,55,0.00,,,0.00,,2013-02-06 19:01:00,
2013-02-06 14:11:00,36.0,21.0,-100.00,West,268,4.0,8.0,55,0.00,,,0.00,,2013-02-06 19:11:00,
2013-02-06 14:21:00,37.0,21.0,-100.00,WSW,238,3.0,7.0,53,0.00,,,0.00,,2013-02-06 19:21:00,
2013-02-06 14:31:00,36.0,19.0,-100.00,SW,216,4.0,12.0,50,0.00,,,0.00,,2013-02-06 19:31:00,
2013-02-06 14:41:00,36.0,19.0,-100.00,SW,216,4.0,12.0,50,0.00,,,0.00,,2013-02-06 19:41:00,
2013-02-06 14:52:00,36.0,19.0,-100.00,WSW,243,4.0,12.0,50,0.00,,,0.00,,2013-02-06 19:52:00,
2013-02-06 15:01:00,35.0,19.0,-100.00,West,267,3.0,8.0,52,0.00,,,0.00,,2013-02-06 20:01:00,
2013-02-06 15:11:00,36.0,20.0,-100.00,SW,227,3.0,8.0,51,0.00,,,0.00,,2013-02-06 20:11:00,
2013-02-06 15:21:00,36.0,20.0,-100.00,SW,227,3.0,8.0,51,0.00,,,0.00,,2013-02-06 20:21:00,
2013-02-06 15:31:00,35.0,20.0,-100.00,SW,235,4.0,10.0,53,0.00,,,0.00,,2013-02-06 20:31:00,
2013-02-06 15:41:00,35.0,20.0,-100.00,SW,235,4.0,10.0,53,0.00,,,0.00,,2013-02-06 20:41:00,
2013-02-06 15:52:00,34.0,20.0,-100.00,West,277,7.0,12.0,56,0.00,,,0.00,,2013-02-06 20:52:00,
2013-02-06 16:01:00,34.0,21.0,-100.00,WNW,289,4.0,9.0,59,0.00,,,0.00,,2013-02-06 21:01:00,
2013-02-06 16:11:00,34.0,21.0,-100.00,WNW,289,4.0,9.0,59,0.00,,,0.00,,2013-02-06 21:11:00,
2013-02-06 16:21:00,34.0,20.0,-100.00,SW,229,4.0,8.0,56,0.00,,,0.00,,2013-02-06 21:21:00,
2013-02-06 16:31:00,35.0,21.0,-100.00,South,185,4.0,10.0,56,0.00,,,0.00,,2013-02-06 21:31:00,
2013-02-06 16:41:00,35.0,21.0,-100.00,South,185,4.0,10.0,56,0.00,,,0.00,,2013-02-06 21:41:00,
2013-02-06 16:52:00,35.0,21.0,-100.00,SW,234,3.0,11.0,56,0.00,,,0.00,,2013-02-06 21:52:00,
2013-02-06 17:01:00,36.0,21.0,-100.00,WNW,288,3.0,10.0,54,0.00,,,0.00,,2013-02-06 22:01:00,
2013-02-06 17:11:00,36.0,21.0,-100.00,WNW,288,3.0,10.0,54,0.00,,,0.00,,2013-02-06 22:11:00,
2013-02-06 17:21:00,35.0,20.0,-100.00,South,183,2.0,8.0,55,0.00,,,0.00,,2013-02-06 22:21:00,
2013-02-06 17:31:00,35.0,20.0,-100.00,WSW,241,4.0,10.0,53,0.00,,,0.00,,2013-02-06 22:31:00,
2013-02-06 17:41:00,35.0,20.0,-100.00,WSW,241,4.0,10.0,53,0.00,,,0.00,,2013-02-06 22:41:00,
2013-02-06 17:52:00,34.0,20.0,-100.00,WSW,253,3.0,9.0,55,0.00,,,0.00,,2013-02-06 22:52:00,
2013-02-06 18:01:00,34.0,19.0,-100.00,WSW,248,2.0,7.0,53,0.00,,,0.00,,2013-02-06 23:01:00,
2013-02-06 18:11:00,34.0,19.0,-100.00,WSW,248,2.0,7.0,53,0.00,,,0.00,,2013-02-06 23:11:00,
2013-02-06 18:21:00,34.0,19.0,-100.00,SSW,209,2.0,13.0,54,0.00,,,0.00,,2013-02-06 23:21:00,
2013-02-06 18:31:00,34.0,18.0,-100.00,SSE,160,3.0,10.0,52,0.00,,,0.00,,2013-02-06 23:31:00,
2013-02-06 18:41:00,34.0,18.0,-100.00,SSE,160,3.0,10.0,52,0.00,,,0.00,,2013-02-06 23:41:00,
2013-02-06 18:52:00,34.0,19.0,-100.00,South,175,3.0,12.0,53,0.00,,,0.00,,2013-02-06 23:52:00,
2013-02-06 19:01:00,33.0,19.0,-100.00,SW,220,2.0,8.0,56,0.00,,,0.00,,2013-02-07 00:01:00,
2013-02-06 19:11:00,33.0,19.0,-100.00,SW,220,2.0,8.0,56,0.00,,,0.00,,2013-02-07 00:11:00,
2013-02-06 19:21:00,32.0,18.0,-100.00,West,275,3.0,10.0,55,0.00,,,0.00,,2013-02-07 00:21:00,
2013-02-06 19:31:00,32.0,19.0,-100.00,South,188,3.0,9.0,57,0.00,,,0.00,,2013-02-07 00:31:00,
2013-02-06 19:41:00,32.0,19.0,-100.00,South,188,3.0,9.0,57,0.00,,,0.00,,2013-02-07 00:41:00,
2013-02-06 19:52:00,31.0,18.0,-100.00,SSE,158,1.0,5.0,57,0.00,,,0.00,,2013-02-07 00:52:00,
2013-02-06 20:01:00,31.0,18.0,-100.00,SW,214,1.0,6.0,58,0.00,,,0.00,,2013-02-07 01:01:00,
2013-02-06 20:11:00,31.0,18.0,-100.00,SW,214,1.0,6.0,58,0.00,,,0.00,,2013-02-07 01:11:00,
2013-02-06 20:21:00,31.0,18.0,-100.00,WSW,242,1.0,7.0,59,0.00,,,0.00,,2013-02-07 01:21:00,
2013-02-06 20:31:00,31.0,18.0,-100.00,South,183,0.0,1.0,59,0.00,,,0.00,,2013-02-07 01:31:00,
2013-02-06 20:41:00,31.0,18.0,-100.00,South,183,0.0,1.0,59,0.00,,,0.00,,2013-02-07 01:41:00,
2013-02-06 20:52:00,30.0,18.0,-100.00,WSW,248,0.0,3.0,61,0.00,,,0.00,,2013-02-07 01:52:00,
2013-02-06 21:01:00,30.0,19.0,-100.00,WSW,246,2.0,6.0,62,0.00,,,0.00,,2013-02-07 02:01:00,
2013-02-06 21:11:00,30.0,19.0,-100.00,WSW,246,2.0,6.0,62,0.00,,,0.00,,2013-02-07 02:11:00,
2013-02-06 21:21:00,30.0,19.0,-100.00,SSW,198,1.0,4.0,62,0.00,,,0.00,,2013-02-07 02:21:00,
2013-02-06 21:31:00,30.0,18.0,-100.00,SW,218,1.0,6.0,61,0.00,,,0.00,,2013-02-07 02:31:00,
2013-02-06 21:41:00,30.0,18.0,-100.00,SW,218,1.0,6.0,61,0.00,,,0.00,,2013-02-07 02:41:00,
2013-02-06 21:51:00,30.0,18.0,-100.00,SW,218,1.0,6.0,61,0.00,,,0.00,,2013-02-07 02:51:00,
2013-02-06 22:01:00,29.0,18.0,-100.00,WSW,258,3.0,8.0,62,0.00,,,0.00,,2013-02-07 03:01:00,
2013-02-06 22:11:00,29.0,18.0,-100.00,WSW,258,3.0,8.0,62,0.00,,,0.00,,2013-02-07 03:11:00,
2013-02-06 22:21:00,29.0,17.0,-100.00,WSW,253,3.0,9.0,61,0.00,,,0.00,,2013-02-07 03:21:00,
2013-02-06 22:31:00,28.0,16.0,-100.00,WSW,249,4.0,10.0,61,0.00,,,0.00,,2013-02-07 03:31:00,
2013-02-06 22:41:00,28.0,16.0,-100.00,WSW,249,4.0,10.0,61,0.00,,,0.00,,2013-02-07 03:41:00,
2013-02-06 22:52:00,27.0,16.0,-100.00,WSW,237,2.0,5.0,62,0.00,,,0.00,,2013-02-07 03:52:00,
2013-02-06 23:01:00,27.0,16.0,-100.00,SSW,198,1.0,6.0,62,0.00,,,0.00,,2013-02-07 04:01:00,
2013-02-06 23:11:00,27.0,16.0,-100.00,SSW,198,1.0,6.0,62,0.00,,,0.00,,2013-02-07 04:11:00,
2013-02-06 23:22:00,27.0,16.0,-100.00,SSW,210,0.0,7.0,63,0.00,,,0.00,,2013-02-07 04:22:00,
2013-02-06 23:31:00,26.0,15.0,-100.00,South,191,1.0,3.0,63,0.00,,,0.00,,2013-02-07 04:31:00,
2013-02-06 23:41:00,26.0,15.0,-100.00,South,191,1.0,3.0,63,0.00,,,0.00,,2013-02-07 04:41:00,
2013-02-06 23:53:00,25.0,15.0,-100.00,West,268,0.0,3.0,65,0.00,,,0.00,,2013-02-07 04:53:00,